Current | Forecast
Updated: 3:30 AM CEST on October 18, 2017
Observed at Brno, Czech Republic
Temperature 9°C
Humidity 93%
Dew Point 8°C
Wind ENE at 15 km/h
Pressure 1019 hPa (Steady)
Conditions Clear
Visibility -
UV N/A
Clouds
Yesterday's Maximum 21°C
Yesterday's Minimum 8°C approx.
Yesterday's Heating Degree Days 7 approx.
Sunrise7:20 AM CEST
Sunset5:57 PM CEST
Moon Rise5:27 AM CEST
Moon Set5:49 PM CEST
Moon PhaseMoon Phase
Waning Crescent
Raw METARMETAR LKTB 180130Z 06008KT CAVOK 09/08 Q1019 NOSIG


Monday
. High: 57° F.
Tuesday
. High: 62° F.
Wednesday
. High: 69° F.
Thursday
. High: 55° F.
Friday
. High: 59° F.
Saturday
. High: 62° F.
Sunday
. High: 66° F.
Monday
. High: 62° F.

Units: English | Metric

Find the Weather for any City, State or Zipcode, or Country:

U.S. State List | Severe Weather | Tropical Storms | Ski Conditions
United States | Canada | Central America | South America | Asia | Europe | Australia | Africa | Islands

Weather Underground

© Copyright 2017
The Weather Company, LLC